Flight Track Log - Related Links

Times and Time Zones

All times are in EDT time to prevent confusion due to time zone crossing. See the ASQ5745 flight status page for this flight to view local times or setup timezone preferences in your user account.

Time Position Orientation Groundspeed Altitude Reporting Facility
EDT Latitude Longitude Course Direction KTS MPH feet Rate Location/Type
Sat 08:41:51 AM 38.9500 -77.5000 North 172 198 1,700  Level Potomac TRACON
Sat 08:44:00 AM 39.2247 -77.4500 North  Level FlightAware Approximate
Sat 08:44:14 AM 39.0906 -77.5894 334° Northwest 252 290 6,600  Level Washington Center
Sat 08:45:00 AM 39.3218 -77.4500 North  Level FlightAware Approximate
Sat 08:45:16 AM 39.1681 -77.5700 11° North 257 296 9,000  Level Washington Center
Sat 08:46:00 AM 39.4189 -77.4500 North  Level FlightAware Approximate
Sat 08:46:16 AM 39.2456 -77.5428 15° North 278 320 11,200  Level Washington Center
Sat 08:47:00 AM 39.5160 -77.4500 North  Level FlightAware Approximate
Sat 08:47:17 AM 39.3217 -77.4831 31° Northeast 294 338 13,100  Level Washington Center
Sat 08:48:15 AM 39.4078 -77.4450 19° North 313 360 14,000 1,008 Climbing Washington Center
Sat 08:49:16 AM 39.5139 -77.4475 359° North 339 390 15,100 1,227 Climbing Washington Center
Sat 08:51:16 AM 39.7325 -77.4525 359° North 401 461 17,700 1,094 Climbing New York Center
Sat 08:52:17 AM 39.8450 -77.4525 360° North 407 468 18,400 750 Climbing New York Center
Sat 08:53:16 AM 39.9558 -77.4847 347° North 407 468 19,200 807 Climbing New York Center
Sat 08:54:16 AM 40.0636 -77.5331 341° North 407 468 20,000 800 Climbing New York Center
Sat 08:55:16 AM 40.1731 -77.5872 339° North 415 478 20,800 793 Climbing New York Center
Sat 08:56:17 AM 40.2856 -77.5872 360° North 406 467 21,600 645 Climbing New York Center
Sat 08:57:17 AM 40.3806 -77.4931 37° Northeast 385 443 22,100 496 Climbing New York Center
Sat 08:58:18 AM 40.4756 -77.3986 37° Northeast 404 465 22,600 504 Climbing New York Center
Sat 08:59:16 AM 40.5619 -77.3086 38° Northeast 421 484 23,100 508 Climbing New York Center
Sat 09:00:16 AM 40.6550 -77.2108 39° Northeast 426 490 23,600 496 Climbing New York Center
Sat 09:01:17 AM 40.7522 -77.1075 39° Northeast 431 496 24,100 500 Climbing New York Center
Sat 09:02:16 AM 40.8492 -77.0067 38° Northeast 431 496 24,600 504 Climbing New York Center
Sat 09:03:16 AM 40.9442 -76.9056 39° Northeast 431 496 25,100 500 Climbing New York Center
Sat 09:04:16 AM 41.0411 -76.8042 38° Northeast 438 504 25,600 496 Climbing New York Center
Sat 09:05:17 AM 41.1358 -76.7025 39° Northeast 438 504 26,100 496 Climbing New York Center
Sat 09:06:17 AM 41.2325 -76.6006 38° Northeast 438 504 26,600 446 Climbing New York Center
Sat 09:07:18 AM 41.3378 -76.4908 38° Northeast 438 504 27,000 198 Climbing New York Center
Sat 09:08:18 AM 41.4389 -76.3831 39° Northeast 438 504 27,000  Level New York Center
Sat 09:09:16 AM 41.5356 -76.2747 40° Northeast 450 518 27,000  Level New York Center
Sat 09:10:16 AM 41.6319 -76.1689 39° Northeast 445 512 27,000  Level New York Center
Sat 09:11:17 AM 41.7261 -76.0653 39° Northeast 445 512 27,000 -225 Level New York Center
Sat 09:12:56 AM 41.8122 -75.8189 65° Northeast 441 507 26,400 -868 Descending Boston Center
Sat 09:13:56 AM 41.8667 -75.6714 64° Northeast 431 496 24,700 -1,200 Descending Boston Center
Sat 09:14:56 AM 41.9792 -75.5933 27° Northeast 415 478 24,000 -350 Descending Boston Center
Sat 09:15:56 AM 42.0897 -75.5150 28° Northeast 434 499 24,000  Level Boston Center
Sat 09:16:56 AM 42.1622 -75.3811 54° Northeast 425 489 24,000  Level Boston Center
Sat 09:17:56 AM 42.2181 -75.2353 63° Northeast 434 499 24,000  Level Boston Center
Sat 09:18:56 AM 42.2736 -75.0889 63° Northeast 429 494 24,000  Level Boston Center
Sat 09:19:56 AM 42.3292 -74.9425 63° Northeast 429 494 24,000 -250 Level Boston Center
Sat 09:20:56 AM 42.3797 -74.8094 63° Northeast 435 501 23,500 -2,492 Descending Boston Center
Sat 09:21:54 AM 42.4372 -74.6458 64° Northeast 440 506 19,100 -4,260 Descending Boston Center
Sat 09:22:36 AM 42.4789 -74.5458 61° Northeast 440 506 16,400 -3,774 Descending Boston Center
Sat 09:22:56 AM 42.4922 -74.4983 69° East 435 501 15,200 -3,836 Descending Boston Center
Sat 09:23:37 AM 42.5314 -74.3983 62° Northeast 427 491 12,500 -3,700 Descending Boston Center
Sat 09:23:56 AM 42.5403 -74.3703 67° East 417 480 11,500 -2,361 Descending Boston Center
Sat 09:24:38 AM 42.5753 -74.2783 63° Northeast 346 398 10,100 -2,100 Descending Boston Center
Sat 09:24:56 AM 42.5883 -74.2422 64° Northeast 365 420 9,400 -2,400 Descending Boston Center
Sat 09:25:38 AM 42.6247 -74.1839 50° Northeast 288 331 7,700 -2,300 Descending Boston Center
Sat 09:25:56 AM 42.6394 -74.1703 34° Northeast 305 351 7,100 -2,262 Descending Boston Center
Sat 09:26:39 AM 42.6942 -74.1294 29° Northeast 289 333 5,400 -2,300 Descending Boston Center
Sat 09:26:56 AM 42.7153 -74.1072 38° Northeast 282 325 4,800 -1,377 Descending Boston Center
Sat 09:27:40 AM 42.7639 -74.0719 28° Northeast 280 322 4,000 -1,000 Descending Boston Center
Sat 09:27:56 AM 42.7764 -74.0636 26° Northeast 277 319 3,800 -900 Descending Boston Center
Sat 09:28:40 AM 42.8250 -74.0225 32° Northeast 241 277 3,100 -900 Descending Boston Center
Sat 09:28:56 AM 42.8333 -74.0142 36° Northeast 262 302 2,900  Descending Boston Center
Sat 09:29:41 AM 42.8819 -73.9703 33° Northeast 230 265 3,100 100 Climbing Boston Center
Sat 09:29:56 AM 42.8883 -73.9619 44° Northeast 236 272 3,000  Descending Boston Center
Sat 09:30:48 AM 42.9369 -73.9092 38° Northeast 245 282 3,100 60 Climbing Boston Center
Sat 09:31:36 AM 42.9525 -73.8442 72° East 211 243 3,100 -88 Level Boston Center
Sat 09:31:56 AM 42.9403 -73.8214 126° Southeast 197 227 3,000 -358 Descending Boston Center
Sat 09:32:43 AM 42.9006 -73.8119 170° South 189 217 2,700 -383 Descending Boston Center

Login

Don't have an account? Register now (free) for customized features, flight alerts, and more!